sensor_id;sensor_type;location;lat;lon;timestamp;temperature;humidity
17697;DHT22;8967;47.984;7.842;2023-05-07T00:01:50;15.90;99.90
17697;DHT22;8967;47.984;7.842;2023-05-07T00:04:17;15.90;99.90
17697;DHT22;8967;47.984;7.842;2023-05-07T00:06:44;15.90;99.90
17697;DHT22;8967;47.984;7.842;2023-05-07T00:09:11;15.90;99.90
17697;DHT22;8967;47.984;7.842;2023-05-07T00:11:38;15.90;99.90
17697;DHT22;8967;47.984;7.842;2023-05-07T00:14:06;15.80;99.90
17697;DHT22;8967;47.984;7.842;2023-05-07T00:16:33;15.80;99.90
17697;DHT22;8967;47.984;7.842;2023-05-07T00:19:00;15.80;99.90
17697;DHT22;8967;47.984;7.842;2023-05-07T00:21:26;15.80;99.90
17697;DHT22;8967;47.984;7.842;2023-05-07T00:23:54;15.80;99.90
17697;DHT22;8967;47.984;7.842;2023-05-07T00:26:21;15.70;99.90
17697;DHT22;8967;47.984;7.842;2023-05-07T00:28:49;15.80;99.90
17697;DHT22;8967;47.984;7.842;2023-05-07T00:31:17;15.80;99.90
17697;DHT22;8967;47.984;7.842;2023-05-07T00:33:46;15.80;99.90
17697;DHT22;8967;47.984;7.842;2023-05-07T00:36:13;15.80;99.90
17697;DHT22;8967;47.984;7.842;2023-05-07T00:38:43;15.80;99.90
17697;DHT22;8967;47.984;7.842;2023-05-07T00:41:10;15.80;99.90
17697;DHT22;8967;47.984;7.842;2023-05-07T00:43:37;15.80;99.90
17697;DHT22;8967;47.984;7.842;2023-05-07T00:46:04;15.70;99.90
17697;DHT22;8967;47.984;7.842;2023-05-07T00:48:32;15.80;99.90
17697;DHT22;8967;47.984;7.842;2023-05-07T00:50:59;15.70;99.90
17697;DHT22;8967;47.984;7.842;2023-05-07T00:53:28;15.70;99.90
17697;DHT22;8967;47.984;7.842;2023-05-07T00:55:57;15.70;99.90
17697;DHT22;8967;47.984;7.842;2023-05-07T00:58:23;15.70;99.90
17697;DHT22;8967;47.984;7.842;2023-05-07T01:00:50;15.70;99.90
17697;DHT22;8967;47.984;7.842;2023-05-07T01:03:17;15.70;99.90
17697;DHT22;8967;47.984;7.842;2023-05-07T01:05:46;15.60;99.90
17697;DHT22;8967;47.984;7.842;2023-05-07T01:08:14;15.60;99.90
17697;DHT22;8967;47.984;7.842;2023-05-07T01:10:45;15.60;99.90
17697;DHT22;8967;47.984;7.842;2023-05-07T01:13:13;15.60;99.90
17697;DHT22;8967;47.984;7.842;2023-05-07T01:15:41;15.60;99.90
17697;DHT22;8967;47.984;7.842;2023-05-07T01:18:09;15.60;99.90
17697;DHT22;8967;47.984;7.842;2023-05-07T01:20:36;15.60;99.90
17697;DHT22;8967;47.984;7.842;2023-05-07T01:23:05;15.60;99.90
17697;DHT22;8967;47.984;7.842;2023-05-07T01:25:32;15.60;99.90
17697;DHT22;8967;47.984;7.842;2023-05-07T01:28:01;15.60;99.90
17697;DHT22;8967;47.984;7.842;2023-05-07T01:30:31;15.50;99.90
17697;DHT22;8967;47.984;7.842;2023-05-07T01:33:06;15.60;99.90
17697;DHT22;8967;47.984;7.842;2023-05-07T01:35:38;15.50;99.90
17697;DHT22;8967;47.984;7.842;2023-05-07T01:38:07;15.50;99.90
17697;DHT22;8967;47.984;7.842;2023-05-07T01:40:35;15.50;99.90
17697;DHT22;8967;47.984;7.842;2023-05-07T01:43:02;15.40;99.90
17697;DHT22;8967;47.984;7.842;2023-05-07T01:45:30;15.40;99.90
17697;DHT22;8967;47.984;7.842;2023-05-07T01:47:58;15.40;99.90
17697;DHT22;8967;47.984;7.842;2023-05-07T01:50:26;15.40;99.90
17697;DHT22;8967;47.984;7.842;2023-05-07T01:52:53;15.40;99.90
17697;DHT22;8967;47.984;7.842;2023-05-07T01:55:22;15.40;99.90
17697;DHT22;8967;47.984;7.842;2023-05-07T01:57:49;15.30;99.90
17697;DHT22;8967;47.984;7.842;2023-05-07T02:00:16;15.30;99.90
17697;DHT22;8967;47.984;7.842;2023-05-07T02:02:44;15.30;99.90
17697;DHT22;8967;47.984;7.842;2023-05-07T02:05:23;15.30;99.90
17697;DHT22;8967;47.984;7.842;2023-05-07T02:07:59;15.30;99.90
17697;DHT22;8967;47.984;7.842;2023-05-07T02:10:29;15.20;99.90
17697;DHT22;8967;47.984;7.842;2023-05-07T02:12:56;15.20;99.90
17697;DHT22;8967;47.984;7.842;2023-05-07T02:15:23;15.20;99.90
17697;DHT22;8967;47.984;7.842;2023-05-07T02:17:58;15.20;99.90
17697;DHT22;8967;47.984;7.842;2023-05-07T02:20:28;15.10;99.90
17697;DHT22;8967;47.984;7.842;2023-05-07T02:22:56;15.10;99.90
17697;DHT22;8967;47.984;7.842;2023-05-07T02:25:25;15.10;99.90
17697;DHT22;8967;47.984;7.842;2023-05-07T02:27:53;15.10;99.90
17697;DHT22;8967;47.984;7.842;2023-05-07T02:30:24;15.00;99.90
17697;DHT22;8967;47.984;7.842;2023-05-07T02:32:53;15.00;99.90
17697;DHT22;8967;47.984;7.842;2023-05-07T02:35:20;15.00;99.90
17697;DHT22;8967;47.984;7.842;2023-05-07T02:37:49;15.00;99.90
17697;DHT22;8967;47.984;7.842;2023-05-07T02:40:16;15.00;99.90
17697;DHT22;8967;47.984;7.842;2023-05-07T02:42:43;14.90;99.90
17697;DHT22;8967;47.984;7.842;2023-05-07T02:45:12;14.90;99.90
17697;DHT22;8967;47.984;7.842;2023-05-07T02:47:40;14.90;99.90
17697;DHT22;8967;47.984;7.842;2023-05-07T02:50:08;14.90;99.90
17697;DHT22;8967;47.984;7.842;2023-05-07T02:52:35;14.90;99.90
17697;DHT22;8967;47.984;7.842;2023-05-07T02:55:01;14.90;99.90
17697;DHT22;8967;47.984;7.842;2023-05-07T02:57:29;14.90;99.90
17697;DHT22;8967;47.984;7.842;2023-05-07T02:59:57;14.90;99.90
17697;DHT22;8967;47.984;7.842;2023-05-07T03:02:25;14.90;99.90
17697;DHT22;8967;47.984;7.842;2023-05-07T03:04:52;14.90;99.90
17697;DHT22;8967;47.984;7.842;2023-05-07T03:07:22;14.90;99.90
17697;DHT22;8967;47.984;7.842;2023-05-07T03:09:49;14.80;99.90
17697;DHT22;8967;47.984;7.842;2023-05-07T03:12:15;14.80;99.90
17697;DHT22;8967;47.984;7.842;2023-05-07T03:14:42;14.80;99.90
17697;DHT22;8967;47.984;7.842;2023-05-07T03:17:12;14.80;99.90
17697;DHT22;8967;47.984;7.842;2023-05-07T03:19:40;14.80;99.90
17697;DHT22;8967;47.984;7.842;2023-05-07T03:22:09;14.80;99.90
17697;DHT22;8967;47.984;7.842;2023-05-07T03:24:36;14.80;99.90
17697;DHT22;8967;47.984;7.842;2023-05-07T03:27:05;14.70;99.90
17697;DHT22;8967;47.984;7.842;2023-05-07T03:29:32;14.70;99.90
17697;DHT22;8967;47.984;7.842;2023-05-07T03:31:59;14.70;99.90
17697;DHT22;8967;47.984;7.842;2023-05-07T03:34:26;14.70;99.90
17697;DHT22;8967;47.984;7.842;2023-05-07T03:36:55;14.70;99.90
17697;DHT22;8967;47.984;7.842;2023-05-07T03:39:23;14.60;99.90
17697;DHT22;8967;47.984;7.842;2023-05-07T03:41:50;14.60;99.90
17697;DHT22;8967;47.984;7.842;2023-05-07T03:44:17;14.60;99.90
17697;DHT22;8967;47.984;7.842;2023-05-07T03:46:45;14.50;99.90
17697;DHT22;8967;47.984;7.842;2023-05-07T03:49:11;14.50;99.90
17697;DHT22;8967;47.984;7.842;2023-05-07T03:51:38;14.50;99.90
17697;DHT22;8967;47.984;7.842;2023-05-07T03:54:08;14.50;99.90
17697;DHT22;8967;47.984;7.842;2023-05-07T03:56:39;14.50;99.90
17697;DHT22;8967;47.984;7.842;2023-05-07T03:59:08;14.50;99.90
17697;DHT22;8967;47.984;7.842;2023-05-07T04:01:35;14.50;99.90
17697;DHT22;8967;47.984;7.842;2023-05-07T04:04:02;14.50;99.90
17697;DHT22;8967;47.984;7.842;2023-05-07T04:06:30;14.50;99.90
17697;DHT22;8967;47.984;7.842;2023-05-07T04:08:58;14.50;99.90
17697;DHT22;8967;47.984;7.842;2023-05-07T04:11:27;14.50;99.90
17697;DHT22;8967;47.984;7.842;2023-05-07T04:13:54;14.50;99.90
17697;DHT22;8967;47.984;7.842;2023-05-07T04:16:23;14.40;99.90
17697;DHT22;8967;47.984;7.842;2023-05-07T04:18:49;14.40;99.90
17697;DHT22;8967;47.984;7.842;2023-05-07T04:21:18;14.40;99.90
17697;DHT22;8967;47.984;7.842;2023-05-07T04:23:46;14.40;99.90
17697;DHT22;8967;47.984;7.842;2023-05-07T04:26:13;14.40;99.90
17697;DHT22;8967;47.984;7.842;2023-05-07T04:28:44;14.40;99.90
17697;DHT22;8967;47.984;7.842;2023-05-07T04:31:15;14.40;99.90
17697;DHT22;8967;47.984;7.842;2023-05-07T04:33:47;14.30;99.90
17697;DHT22;8967;47.984;7.842;2023-05-07T04:36:15;14.30;99.90
17697;DHT22;8967;47.984;7.842;2023-05-07T04:38:50;14.30;99.90
17697;DHT22;8967;47.984;7.842;2023-05-07T04:41:19;14.30;99.90
17697;DHT22;8967;47.984;7.842;2023-05-07T04:43:47;14.30;99.90
17697;DHT22;8967;47.984;7.842;2023-05-07T04:46:16;14.30;99.90
17697;DHT22;8967;47.984;7.842;2023-05-07T04:48:46;14.40;99.90
17697;DHT22;8967;47.984;7.842;2023-05-07T04:51:13;14.40;99.90
17697;DHT22;8967;47.984;7.842;2023-05-07T04:53:40;14.40;99.90
17697;DHT22;8967;47.984;7.842;2023-05-07T04:56:08;14.40;99.90
17697;DHT22;8967;47.984;7.842;2023-05-07T04:58:41;14.40;99.90
17697;DHT22;8967;47.984;7.842;2023-05-07T05:01:10;14.40;99.90
17697;DHT22;8967;47.984;7.842;2023-05-07T05:03:38;14.40;99.90
17697;DHT22;8967;47.984;7.842;2023-05-07T05:06:07;14.40;99.90
17697;DHT22;8967;47.984;7.842;2023-05-07T05:08:34;14.40;99.90
17697;DHT22;8967;47.984;7.842;2023-05-07T05:11:04;14.50;99.90
17697;DHT22;8967;47.984;7.842;2023-05-07T05:13:33;14.50;99.90
17697;DHT22;8967;47.984;7.842;2023-05-07T05:16:05;14.50;99.90
17697;DHT22;8967;47.984;7.842;2023-05-07T05:18:34;14.50;99.90
17697;DHT22;8967;47.984;7.842;2023-05-07T05:21:01;14.50;99.90
17697;DHT22;8967;47.984;7.842;2023-05-07T05:23:28;14.60;99.90
17697;DHT22;8967;47.984;7.842;2023-05-07T05:25:56;14.60;99.90
17697;DHT22;8967;47.984;7.842;2023-05-07T05:28:25;14.60;99.90
17697;DHT22;8967;47.984;7.842;2023-05-07T05:30:53;14.60;99.90
17697;DHT22;8967;47.984;7.842;2023-05-07T05:33:21;14.70;99.90
17697;DHT22;8967;47.984;7.842;2023-05-07T05:35:53;14.70;99.90
17697;DHT22;8967;47.984;7.842;2023-05-07T05:38:21;14.70;99.90
17697;DHT22;8967;47.984;7.842;2023-05-07T05:40:48;14.70;99.90
17697;DHT22;8967;47.984;7.842;2023-05-07T05:43:15;14.80;99.90
17697;DHT22;8967;47.984;7.842;2023-05-07T05:45:42;14.80;99.90
17697;DHT22;8967;47.984;7.842;2023-05-07T05:48:09;14.80;99.90
17697;DHT22;8967;47.984;7.842;2023-05-07T05:50:37;14.90;99.90
17697;DHT22;8967;47.984;7.842;2023-05-07T05:53:08;14.90;99.90
17697;DHT22;8967;47.984;7.842;2023-05-07T05:55:35;15.00;99.90
17697;DHT22;8967;47.984;7.842;2023-05-07T05:58:02;15.00;99.90
17697;DHT22;8967;47.984;7.842;2023-05-07T06:00:33;15.00;99.90
17697;DHT22;8967;47.984;7.842;2023-05-07T06:03:03;15.10;99.90
17697;DHT22;8967;47.984;7.842;2023-05-07T06:05:30;15.10;99.90
17697;DHT22;8967;47.984;7.842;2023-05-07T06:07:57;15.10;99.90
17697;DHT22;8967;47.984;7.842;2023-05-07T06:10:27;15.20;99.90
17697;DHT22;8967;47.984;7.842;2023-05-07T06:12:55;15.20;99.90
17697;DHT22;8967;47.984;7.842;2023-05-07T06:15:22;15.30;99.90
17697;DHT22;8967;47.984;7.842;2023-05-07T06:17:50;15.30;99.90
17697;DHT22;8967;47.984;7.842;2023-05-07T06:20:19;15.40;99.90
17697;DHT22;8967;47.984;7.842;2023-05-07T06:22:47;15.40;99.90
17697;DHT22;8967;47.984;7.842;2023-05-07T06:25:16;15.50;99.90
17697;DHT22;8967;47.984;7.842;2023-05-07T06:27:45;15.50;99.90
17697;DHT22;8967;47.984;7.842;2023-05-07T06:30:14;15.60;99.90
17697;DHT22;8967;47.984;7.842;2023-05-07T06:32:41;15.60;99.90
17697;DHT22;8967;47.984;7.842;2023-05-07T06:35:09;15.60;99.90
17697;DHT22;8967;47.984;7.842;2023-05-07T06:37:37;15.60;99.90
17697;DHT22;8967;47.984;7.842;2023-05-07T06:40:07;15.70;99.90
17697;DHT22;8967;47.984;7.842;2023-05-07T06:42:38;15.70;99.90
17697;DHT22;8967;47.984;7.842;2023-05-07T06:45:24;15.80;99.90
17697;DHT22;8967;47.984;7.842;2023-05-07T06:47:53;15.80;99.90
17697;DHT22;8967;47.984;7.842;2023-05-07T06:50:22;15.80;99.90
17697;DHT22;8967;47.984;7.842;2023-05-07T06:52:51;15.90;99.90
17697;DHT22;8967;47.984;7.842;2023-05-07T06:55:18;15.90;99.90
17697;DHT22;8967;47.984;7.842;2023-05-07T06:57:45;15.90;99.90
17697;DHT22;8967;47.984;7.842;2023-05-07T07:00:14;16.00;99.90
17697;DHT22;8967;47.984;7.842;2023-05-07T07:02:54;16.00;99.90
17697;DHT22;8967;47.984;7.842;2023-05-07T07:05:24;16.10;99.90
17697;DHT22;8967;47.984;7.842;2023-05-07T07:07:51;16.10;99.90
17697;DHT22;8967;47.984;7.842;2023-05-07T07:10:19;16.20;99.90
17697;DHT22;8967;47.984;7.842;2023-05-07T07:12:50;16.20;99.90
17697;DHT22;8967;47.984;7.842;2023-05-07T07:15:19;16.20;99.90
17697;DHT22;8967;47.984;7.842;2023-05-07T07:17:49;16.30;99.90
17697;DHT22;8967;47.984;7.842;2023-05-07T07:20:18;16.30;99.90
17697;DHT22;8967;47.984;7.842;2023-05-07T07:22:47;16.30;99.90
17697;DHT22;8967;47.984;7.842;2023-05-07T07:25:16;16.30;99.90
17697;DHT22;8967;47.984;7.842;2023-05-07T07:27:43;16.40;99.90
17697;DHT22;8967;47.984;7.842;2023-05-07T07:30:11;16.40;99.90
17697;DHT22;8967;47.984;7.842;2023-05-07T07:32:40;16.40;99.90
17697;DHT22;8967;47.984;7.842;2023-05-07T07:35:08;16.50;99.90
17697;DHT22;8967;47.984;7.842;2023-05-07T07:37:38;16.50;99.90
17697;DHT22;8967;47.984;7.842;2023-05-07T07:40:08;16.60;99.90
17697;DHT22;8967;47.984;7.842;2023-05-07T07:42:36;16.60;99.90
17697;DHT22;8967;47.984;7.842;2023-05-07T07:45:04;16.60;99.90
17697;DHT22;8967;47.984;7.842;2023-05-07T07:47:34;16.70;99.90
17697;DHT22;8967;47.984;7.842;2023-05-07T07:50:02;16.70;99.90
17697;DHT22;8967;47.984;7.842;2023-05-07T07:52:29;16.70;99.90
17697;DHT22;8967;47.984;7.842;2023-05-07T07:54:57;16.80;99.90
17697;DHT22;8967;47.984;7.842;2023-05-07T07:57:24;16.80;99.90
17697;DHT22;8967;47.984;7.842;2023-05-07T07:59:51;16.90;99.90
17697;DHT22;8967;47.984;7.842;2023-05-07T08:02:19;16.90;99.90
17697;DHT22;8967;47.984;7.842;2023-05-07T08:04:48;17.00;99.90
17697;DHT22;8967;47.984;7.842;2023-05-07T08:07:15;17.00;99.90
17697;DHT22;8967;47.984;7.842;2023-05-07T08:09:45;17.10;99.90
17697;DHT22;8967;47.984;7.842;2023-05-07T08:12:14;17.20;99.90
17697;DHT22;8967;47.984;7.842;2023-05-07T08:14:42;17.20;99.90
17697;DHT22;8967;47.984;7.842;2023-05-07T08:17:09;17.30;99.90
17697;DHT22;8967;47.984;7.842;2023-05-07T08:19:37;17.30;99.90
17697;DHT22;8967;47.984;7.842;2023-05-07T08:22:07;17.40;99.90
17697;DHT22;8967;47.984;7.842;2023-05-07T08:24:34;17.40;99.90
17697;DHT22;8967;47.984;7.842;2023-05-07T08:27:01;17.50;99.90
17697;DHT22;8967;47.984;7.842;2023-05-07T08:29:29;17.60;99.90
17697;DHT22;8967;47.984;7.842;2023-05-07T08:31:56;17.60;99.90
17697;DHT22;8967;47.984;7.842;2023-05-07T08:34:26;17.70;99.90
17697;DHT22;8967;47.984;7.842;2023-05-07T08:36:54;17.80;99.90
17697;DHT22;8967;47.984;7.842;2023-05-07T08:39:23;17.80;99.90
17697;DHT22;8967;47.984;7.842;2023-05-07T08:41:55;17.90;99.90
17697;DHT22;8967;47.984;7.842;2023-05-07T08:44:26;18.00;99.90
17697;DHT22;8967;47.984;7.842;2023-05-07T08:46:58;18.00;99.90
17697;DHT22;8967;47.984;7.842;2023-05-07T08:49:29;18.10;99.90
17697;DHT22;8967;47.984;7.842;2023-05-07T08:51:56;18.20;99.90
17697;DHT22;8967;47.984;7.842;2023-05-07T08:54:25;18.30;99.90
17697;DHT22;8967;47.984;7.842;2023-05-07T08:56:52;18.30;99.90
17697;DHT22;8967;47.984;7.842;2023-05-07T08:59:19;18.40;99.90
17697;DHT22;8967;47.984;7.842;2023-05-07T09:01:46;18.40;99.90
17697;DHT22;8967;47.984;7.842;2023-05-07T09:04:16;18.50;99.90
17697;DHT22;8967;47.984;7.842;2023-05-07T09:06:43;18.60;99.90
17697;DHT22;8967;47.984;7.842;2023-05-07T09:09:14;18.60;99.90
17697;DHT22;8967;47.984;7.842;2023-05-07T09:11:44;18.70;99.90
17697;DHT22;8967;47.984;7.842;2023-05-07T09:14:13;18.70;99.90
17697;DHT22;8967;47.984;7.842;2023-05-07T09:16:42;18.80;99.90
17697;DHT22;8967;47.984;7.842;2023-05-07T09:19:10;18.90;99.90
17697;DHT22;8967;47.984;7.842;2023-05-07T09:21:44;18.90;99.90
17697;DHT22;8967;47.984;7.842;2023-05-07T09:24:12;19.00;99.90
17697;DHT22;8967;47.984;7.842;2023-05-07T09:26:42;19.00;99.90
17697;DHT22;8967;47.984;7.842;2023-05-07T09:29:10;19.10;99.90
17697;DHT22;8967;47.984;7.842;2023-05-07T09:31:38;19.10;99.90
17697;DHT22;8967;47.984;7.842;2023-05-07T09:34:08;19.20;99.90
17697;DHT22;8967;47.984;7.842;2023-05-07T09:36:38;19.20;99.90
17697;DHT22;8967;47.984;7.842;2023-05-07T09:39:07;19.20;99.90
17697;DHT22;8967;47.984;7.842;2023-05-07T09:41:43;19.30;99.90
17697;DHT22;8967;47.984;7.842;2023-05-07T09:44:15;19.30;99.90
17697;DHT22;8967;47.984;7.842;2023-05-07T09:46:52;19.40;99.90
17697;DHT22;8967;47.984;7.842;2023-05-07T09:49:25;19.40;99.90
17697;DHT22;8967;47.984;7.842;2023-05-07T09:52:01;19.50;99.90
17697;DHT22;8967;47.984;7.842;2023-05-07T09:54:34;19.50;99.90
17697;DHT22;8967;47.984;7.842;2023-05-07T09:57:04;19.60;99.90
17697;DHT22;8967;47.984;7.842;2023-05-07T09:59:33;19.60;99.90
17697;DHT22;8967;47.984;7.842;2023-05-07T10:02:05;19.60;99.90
17697;DHT22;8967;47.984;7.842;2023-05-07T10:04:38;19.60;99.90
17697;DHT22;8967;47.984;7.842;2023-05-07T10:07:07;19.60;99.90
17697;DHT22;8967;47.984;7.842;2023-05-07T10:09:37;19.60;99.90
17697;DHT22;8967;47.984;7.842;2023-05-07T10:12:13;19.60;99.90
17697;DHT22;8967;47.984;7.842;2023-05-07T10:14:40;19.60;99.90
17697;DHT22;8967;47.984;7.842;2023-05-07T10:17:08;19.50;99.90
17697;DHT22;8967;47.984;7.842;2023-05-07T10:19:38;19.50;99.90
17697;DHT22;8967;47.984;7.842;2023-05-07T10:22:05;19.50;99.90
17697;DHT22;8967;47.984;7.842;2023-05-07T10:24:39;19.40;99.90
17697;DHT22;8967;47.984;7.842;2023-05-07T10:27:13;19.40;99.90
17697;DHT22;8967;47.984;7.842;2023-05-07T10:29:49;19.40;99.90
17697;DHT22;8967;47.984;7.842;2023-05-07T10:32:34;19.30;99.90
17697;DHT22;8967;47.984;7.842;2023-05-07T10:35:06;19.30;99.90
17697;DHT22;8967;47.984;7.842;2023-05-07T10:37:36;19.20;99.90
17697;DHT22;8967;47.984;7.842;2023-05-07T10:40:27;19.20;99.90
17697;DHT22;8967;47.984;7.842;2023-05-07T10:42:55;19.10;99.90
17697;DHT22;8967;47.984;7.842;2023-05-07T10:45:27;19.10;99.90
17697;DHT22;8967;47.984;7.842;2023-05-07T10:48:08;19.00;99.90
17697;DHT22;8967;47.984;7.842;2023-05-07T10:50:35;18.90;99.90
17697;DHT22;8967;47.984;7.842;2023-05-07T10:53:24;18.90;99.90
17697;DHT22;8967;47.984;7.842;2023-05-07T10:56:26;18.90;99.90
17697;DHT22;8967;47.984;7.842;2023-05-07T10:59:30;18.90;99.90
17697;DHT22;8967;47.984;7.842;2023-05-07T11:02:02;18.90;99.90
17697;DHT22;8967;47.984;7.842;2023-05-07T11:05:19;18.90;99.90
17697;DHT22;8967;47.984;7.842;2023-05-07T11:07:54;18.90;99.90
17697;DHT22;8967;47.984;7.842;2023-05-07T11:10:22;18.80;99.90
17697;DHT22;8967;47.984;7.842;2023-05-07T11:13:00;18.80;99.90
17697;DHT22;8967;47.984;7.842;2023-05-07T11:15:39;18.80;99.90
17697;DHT22;8967;47.984;7.842;2023-05-07T11:18:46;18.80;99.90
17697;DHT22;8967;47.984;7.842;2023-05-07T11:21:32;18.90;99.90
17697;DHT22;8967;47.984;7.842;2023-05-07T11:24:07;18.90;99.90
17697;DHT22;8967;47.984;7.842;2023-05-07T11:26:54;18.90;99.90
17697;DHT22;8967;47.984;7.842;2023-05-07T11:29:25;18.90;99.90
17697;DHT22;8967;47.984;7.842;2023-05-07T11:32:02;18.90;99.90
17697;DHT22;8967;47.984;7.842;2023-05-07T11:34:34;18.90;99.90
17697;DHT22;8967;47.984;7.842;2023-05-07T11:37:02;18.90;99.90
17697;DHT22;8967;47.984;7.842;2023-05-07T11:39:42;19.00;99.90
17697;DHT22;8967;47.984;7.842;2023-05-07T11:42:27;19.00;99.90
17697;DHT22;8967;47.984;7.842;2023-05-07T11:44:56;19.00;99.90
17697;DHT22;8967;47.984;7.842;2023-05-07T11:47:24;19.10;99.90
17697;DHT22;8967;47.984;7.842;2023-05-07T11:49:52;19.10;99.90
17697;DHT22;8967;47.984;7.842;2023-05-07T11:52:20;19.10;99.90
17697;DHT22;8967;47.984;7.842;2023-05-07T11:54:49;19.20;99.90
17697;DHT22;8967;47.984;7.842;2023-05-07T11:57:16;19.20;99.90
17697;DHT22;8967;47.984;7.842;2023-05-07T11:59:43;19.20;99.90
17697;DHT22;8967;47.984;7.842;2023-05-07T12:02:13;19.20;99.90
17697;DHT22;8967;47.984;7.842;2023-05-07T12:04:40;19.20;99.90
17697;DHT22;8967;47.984;7.842;2023-05-07T12:07:11;19.20;99.90
17697;DHT22;8967;47.984;7.842;2023-05-07T12:09:39;19.20;99.90
17697;DHT22;8967;47.984;7.842;2023-05-07T12:12:06;19.20;99.90
17697;DHT22;8967;47.984;7.842;2023-05-07T12:14:37;19.20;99.90
17697;DHT22;8967;47.984;7.842;2023-05-07T12:17:07;19.20;99.90
17697;DHT22;8967;47.984;7.842;2023-05-07T12:19:36;19.20;99.90
17697;DHT22;8967;47.984;7.842;2023-05-07T12:22:04;19.20;99.90
17697;DHT22;8967;47.984;7.842;2023-05-07T12:24:45;19.20;99.90
17697;DHT22;8967;47.984;7.842;2023-05-07T12:27:12;19.20;99.90
17697;DHT22;8967;47.984;7.842;2023-05-07T12:29:43;19.30;99.90
17697;DHT22;8967;47.984;7.842;2023-05-07T12:32:13;19.30;99.90
17697;DHT22;8967;47.984;7.842;2023-05-07T12:34:41;19.30;99.90
17697;DHT22;8967;47.984;7.842;2023-05-07T12:37:08;19.30;99.90
17697;DHT22;8967;47.984;7.842;2023-05-07T12:39:36;19.30;99.90
17697;DHT22;8967;47.984;7.842;2023-05-07T12:42:03;19.40;99.90
17697;DHT22;8967;47.984;7.842;2023-05-07T12:44:31;19.40;99.90
17697;DHT22;8967;47.984;7.842;2023-05-07T12:46:58;19.40;99.90
17697;DHT22;8967;47.984;7.842;2023-05-07T12:49:27;19.40;99.90
17697;DHT22;8967;47.984;7.842;2023-05-07T12:51:56;19.50;99.90
17697;DHT22;8967;47.984;7.842;2023-05-07T12:54:29;19.50;99.90
17697;DHT22;8967;47.984;7.842;2023-05-07T12:57:03;19.50;99.90
17697;DHT22;8967;47.984;7.842;2023-05-07T12:59:32;19.50;99.90
17697;DHT22;8967;47.984;7.842;2023-05-07T13:01:59;19.50;99.90
17697;DHT22;8967;47.984;7.842;2023-05-07T13:04:26;19.50;99.90
17697;DHT22;8967;47.984;7.842;2023-05-07T13:06:52;19.50;99.90
17697;DHT22;8967;47.984;7.842;2023-05-07T13:09:21;19.50;99.90
17697;DHT22;8967;47.984;7.842;2023-05-07T13:11:48;19.50;99.90
17697;DHT22;8967;47.984;7.842;2023-05-07T13:14:15;19.50;99.90
17697;DHT22;8967;47.984;7.842;2023-05-07T13:16:42;19.60;99.90
17697;DHT22;8967;47.984;7.842;2023-05-07T13:19:09;19.60;99.90
17697;DHT22;8967;47.984;7.842;2023-05-07T13:21:36;19.60;99.90
17697;DHT22;8967;47.984;7.842;2023-05-07T13:24:03;19.60;99.90
17697;DHT22;8967;47.984;7.842;2023-05-07T13:26:31;19.60;99.90
17697;DHT22;8967;47.984;7.842;2023-05-07T13:28:58;19.60;99.90
17697;DHT22;8967;47.984;7.842;2023-05-07T13:31:28;19.60;99.90
17697;DHT22;8967;47.984;7.842;2023-05-07T13:33:55;19.60;99.90
17697;DHT22;8967;47.984;7.842;2023-05-07T13:36:24;19.60;99.90
17697;DHT22;8967;47.984;7.842;2023-05-07T13:38:54;19.50;99.90
17697;DHT22;8967;47.984;7.842;2023-05-07T13:41:21;19.50;99.90
17697;DHT22;8967;47.984;7.842;2023-05-07T13:43:52;19.50;99.90
17697;DHT22;8967;47.984;7.842;2023-05-07T13:46:18;19.50;99.90
17697;DHT22;8967;47.984;7.842;2023-05-07T13:48:45;19.60;99.90
17697;DHT22;8967;47.984;7.842;2023-05-07T13:51:14;19.60;99.90
17697;DHT22;8967;47.984;7.842;2023-05-07T13:53:42;19.60;99.90
17697;DHT22;8967;47.984;7.842;2023-05-07T13:56:09;19.60;99.90
17697;DHT22;8967;47.984;7.842;2023-05-07T13:58:36;19.60;99.90
17697;DHT22;8967;47.984;7.842;2023-05-07T14:01:04;19.60;99.90
17697;DHT22;8967;47.984;7.842;2023-05-07T14:03:31;19.60;99.90
17697;DHT22;8967;47.984;7.842;2023-05-07T14:05:59;19.60;99.90
17697;DHT22;8967;47.984;7.842;2023-05-07T14:08:27;19.60;99.90
17697;DHT22;8967;47.984;7.842;2023-05-07T14:10:54;19.60;99.90
17697;DHT22;8967;47.984;7.842;2023-05-07T14:13:21;19.60;99.90
17697;DHT22;8967;47.984;7.842;2023-05-07T14:15:48;19.60;99.90
17697;DHT22;8967;47.984;7.842;2023-05-07T14:18:16;19.50;99.90
17697;DHT22;8967;47.984;7.842;2023-05-07T14:20:43;19.50;99.90
17697;DHT22;8967;47.984;7.842;2023-05-07T14:23:12;19.60;99.90
17697;DHT22;8967;47.984;7.842;2023-05-07T14:25:39;19.50;99.90
17697;DHT22;8967;47.984;7.842;2023-05-07T14:28:06;19.50;99.90
17697;DHT22;8967;47.984;7.842;2023-05-07T14:30:33;19.50;99.90
17697;DHT22;8967;47.984;7.842;2023-05-07T14:33:00;19.50;99.90
17697;DHT22;8967;47.984;7.842;2023-05-07T14:35:28;19.60;99.90
17697;DHT22;8967;47.984;7.842;2023-05-07T14:37:55;19.60;99.90
17697;DHT22;8967;47.984;7.842;2023-05-07T14:40:22;19.60;99.90
17697;DHT22;8967;47.984;7.842;2023-05-07T14:42:49;19.60;99.90
17697;DHT22;8967;47.984;7.842;2023-05-07T14:45:18;19.60;99.90
17697;DHT22;8967;47.984;7.842;2023-05-07T14:47:45;19.60;99.90
17697;DHT22;8967;47.984;7.842;2023-05-07T14:50:12;19.60;99.90
17697;DHT22;8967;47.984;7.842;2023-05-07T14:52:40;19.60;99.90
17697;DHT22;8967;47.984;7.842;2023-05-07T14:55:08;19.60;99.90
17697;DHT22;8967;47.984;7.842;2023-05-07T14:57:35;19.60;99.90
17697;DHT22;8967;47.984;7.842;2023-05-07T15:00:03;19.70;99.90
17697;DHT22;8967;47.984;7.842;2023-05-07T15:02:33;19.70;99.90
17697;DHT22;8967;47.984;7.842;2023-05-07T15:05:03;19.70;99.90
17697;DHT22;8967;47.984;7.842;2023-05-07T15:07:30;19.70;99.90
17697;DHT22;8967;47.984;7.842;2023-05-07T15:09:59;19.70;99.90
17697;DHT22;8967;47.984;7.842;2023-05-07T15:12:26;19.70;99.90
17697;DHT22;8967;47.984;7.842;2023-05-07T15:14:53;19.60;99.60
17697;DHT22;8967;47.984;7.842;2023-05-07T15:17:22;19.60;99.50
17697;DHT22;8967;47.984;7.842;2023-05-07T15:19:51;19.60;99.20
17697;DHT22;8967;47.984;7.842;2023-05-07T15:22:19;19.60;99.00
17697;DHT22;8967;47.984;7.842;2023-05-07T15:24:46;19.60;99.00
17697;DHT22;8967;47.984;7.842;2023-05-07T15:27:15;19.60;98.80
17697;DHT22;8967;47.984;7.842;2023-05-07T15:29:42;19.60;98.80
17697;DHT22;8967;47.984;7.842;2023-05-07T15:32:09;19.60;98.80
17697;DHT22;8967;47.984;7.842;2023-05-07T15:34:35;19.60;98.60
17697;DHT22;8967;47.984;7.842;2023-05-07T15:37:02;19.60;98.50
17697;DHT22;8967;47.984;7.842;2023-05-07T15:39:30;19.60;98.50
17697;DHT22;8967;47.984;7.842;2023-05-07T15:41:57;19.50;98.50
17697;DHT22;8967;47.984;7.842;2023-05-07T15:44:25;19.60;98.30
17697;DHT22;8967;47.984;7.842;2023-05-07T15:46:56;19.50;98.10
17697;DHT22;8967;47.984;7.842;2023-05-07T15:49:23;19.50;97.90
17697;DHT22;8967;47.984;7.842;2023-05-07T15:51:50;19.50;98.00
17697;DHT22;8967;47.984;7.842;2023-05-07T15:54:19;19.50;97.90
17697;DHT22;8967;47.984;7.842;2023-05-07T15:56:46;19.50;97.80
17697;DHT22;8967;47.984;7.842;2023-05-07T15:59:14;19.50;97.80